Time;durP1;ratioP1;P1;durP2;ratioP2;P2;SDS_P1;SDS_P2;PMS_P1;PMS_P2;Temp;Humidity;BMP_temperature;BMP_pressure;BME280_temperature;BME280_humidity;BME280_pressure;Samples;Min_cycle;Max_cycle;Signal;HPM_P1;HPM_P2
2023/12/29 00:01:18;;;;;;;20.73;11.95;;;;;;;;;;5027940;28;20483;-82
2023/12/29 00:03:43;;;;;;;20.67;9.55;;;;;;;;;;4995039;28;20419;-82
2023/12/29 00:06:08;;;;;;;24.48;14.65;;;;;;;;;;5013028;28;20072;-82
2023/12/29 00:08:34;;;;;;;23.02;13.65;;;;;;;;;;5027775;28;20036;-82
2023/12/29 00:10:59;;;;;;;37.83;20.08;;;;;;;;;;5007582;28;20018;-82
2023/12/29 00:13:25;;;;;;;23.60;13.68;;;;;;;;;;5009110;28;20040;-82
2023/12/29 00:15:54;;;;;;;19.40;9.77;;;;;;;;;;5011079;28;20051;-82
2023/12/29 00:18:19;;;;;;;18.77;10.55;;;;;;;;;;5010568;28;20490;-82
2023/12/29 00:20:44;;;;;;;18.88;10.40;;;;;;;;;;5026873;28;20052;-82
2023/12/29 00:23:10;;;;;;;22.42;10.98;;;;;;;;;;5011186;28;20025;-82
2023/12/29 00:25:36;;;;;;;15.50;8.75;;;;;;;;;;5010809;28;20029;-82
2023/12/29 00:28:02;;;;;;;21.48;11.60;;;;;;;;;;5008860;28;20025;-82
2023/12/29 00:30:29;;;;;;;28.38;14.23;;;;;;;;;;4991591;28;20030;-82
2023/12/29 00:32:55;;;;;;;21.30;11.70;;;;;;;;;;5024637;28;20013;-82
2023/12/29 00:35:20;;;;;;;19.55;11.70;;;;;;;;;;5028654;28;20021;-82
2023/12/29 00:37:45;;;;;;;23.20;13.32;;;;;;;;;;5027696;28;20081;-82
2023/12/29 00:40:11;;;;;;;19.77;11.68;;;;;;;;;;4994593;28;20484;-82
2023/12/29 00:42:36;;;;;;;16.45;9.43;;;;;;;;;;5015866;28;20029;-82
2023/12/29 00:45:01;;;;;;;14.68;8.38;;;;;;;;;;5010961;28;20233;-82
2023/12/29 00:47:27;;;;;;;12.85;8.32;;;;;;;;;;5010021;28;20479;-82
2023/12/29 00:49:52;;;;;;;11.38;7.53;;;;;;;;;;5010733;28;20044;-82
2023/12/29 00:52:18;;;;;;;11.90;7.82;;;;;;;;;;5028288;28;20029;-82
2023/12/29 00:54:43;;;;;;;10.27;6.65;;;;;;;;;;5027047;28;20390;-82
2023/12/29 00:57:09;;;;;;;22.10;13.27;;;;;;;;;;5027981;28;20104;-82
2023/12/29 00:59:37;;;;;;;28.40;15.32;;;;;;;;;;5025838;28;20029;-82
2023/12/29 01:02:02;;;;;;;25.10;14.45;;;;;;;;;;5027240;28;20180;-82
2023/12/29 01:04:27;;;;;;;24.35;13.00;;;;;;;;;;5014659;28;20542;-82
2023/12/29 01:06:54;;;;;;;29.60;16.13;;;;;;;;;;5027810;28;20029;-82
2023/12/29 01:09:19;;;;;;;26.42;14.05;;;;;;;;;;5028111;28;20391;-82
2023/12/29 01:11:44;;;;;;;28.30;14.18;;;;;;;;;;4994016;28;20126;-82
2023/12/29 01:14:10;;;;;;;23.75;13.48;;;;;;;;;;5015091;28;20017;-82
2023/12/29 01:16:35;;;;;;;22.15;11.82;;;;;;;;;;5027747;28;20040;-82
2023/12/29 01:19:00;;;;;;;19.70;11.18;;;;;;;;;;5024932;28;20485;-82
2023/12/29 01:21:26;;;;;;;32.42;17.35;;;;;;;;;;5010044;28;20426;-82
2023/12/29 01:23:51;;;;;;;21.17;12.05;;;;;;;;;;5028023;28;20522;-82
2023/12/29 01:26:17;;;;;;;29.38;16.58;;;;;;;;;;5027640;28;20034;-82
2023/12/29 01:28:42;;;;;;;21.67;12.15;;;;;;;;;;5010455;28;20213;-82
2023/12/29 01:31:08;;;;;;;18.20;10.70;;;;;;;;;;5029237;28;20026;-82
2023/12/29 01:33:34;;;;;;;15.57;9.10;;;;;;;;;;5010014;28;20109;-82
2023/12/29 01:35:59;;;;;;;15.63;8.80;;;;;;;;;;5006824;28;20551;-82
2023/12/29 01:38:25;;;;;;;15.25;8.63;;;;;;;;;;5026349;28;20030;-82
2023/12/29 01:40:50;;;;;;;22.00;10.63;;;;;;;;;;5028058;28;20018;-82
2023/12/29 01:43:15;;;;;;;28.83;16.38;;;;;;;;;;5027586;28;20545;-82
2023/12/29 01:45:41;;;;;;;14.35;8.40;;;;;;;;;;5018019;28;20040;-82
2023/12/29 01:48:07;;;;;;;19.42;9.85;;;;;;;;;;5027418;28;20040;-82
2023/12/29 01:50:33;;;;;;;28.40;14.73;;;;;;;;;;5027450;28;20041;-81
2023/12/29 01:52:59;;;;;;;16.60;9.57;;;;;;;;;;5027834;28;20506;-82
2023/12/29 01:55:25;;;;;;;13.65;7.45;;;;;;;;;;5028973;28;20437;-82
2023/12/29 01:57:51;;;;;;;16.33;9.38;;;;;;;;;;5027270;28;20032;-83
2023/12/29 02:00:16;;;;;;;17.02;10.48;;;;;;;;;;5028511;28;20021;-82
2023/12/29 02:02:42;;;;;;;13.77;8.18;;;;;;;;;;5027899;28;20119;-82
2023/12/29 02:05:07;;;;;;;8.27;6.80;;;;;;;;;;5010547;28;20040;-80
2023/12/29 02:07:33;;;;;;;8.27;5.07;;;;;;;;;;5028796;28;20114;-82
2023/12/29 02:09:59;;;;;;;8.68;5.65;;;;;;;;;;5027106;28;20021;-82
2023/12/29 02:12:25;;;;;;;6.93;4.53;;;;;;;;;;5030016;28;20048;-82
2023/12/29 02:14:50;;;;;;;11.27;5.72;;;;;;;;;;5027175;28;20037;-82
2023/12/29 02:17:38;;;;;;;10.43;6.95;;;;;;;;;;5026935;28;20017;-82
2023/12/29 02:20:04;;;;;;;11.77;7.13;;;;;;;;;;5018758;28;20046;-82
2023/12/29 02:22:30;;;;;;;9.50;5.85;;;;;;;;;;5020904;28;20032;-82
2023/12/29 02:24:55;;;;;;;67.68;42.78;;;;;;;;;;5027293;28;20021;-82
2023/12/29 02:27:39;;;;;;;16.75;11.05;;;;;;;;;;5006121;28;20028;-82
2023/12/29 02:30:16;;;;;;;38.67;21.17;;;;;;;;;;5006431;28;20072;-82
2023/12/29 02:32:42;;;;;;;22.05;12.35;;;;;;;;;;5009150;28;20044;-82
2023/12/29 02:35:14;;;;;;;81.90;29.67;;;;;;;;;;5025607;28;20395;-82
2023/12/29 02:37:40;;;;;;;55.20;28.60;;;;;;;;;;5026699;28;20048;-82
2023/12/29 02:40:07;;;;;;;94.68;36.17;;;;;;;;;;5008900;28;20013;-82
2023/12/29 02:42:32;;;;;;;121.47;54.88;;;;;;;;;;5029370;28;20018;-82
2023/12/29 02:44:57;;;;;;;63.90;29.95;;;;;;;;;;5030202;28;20431;-82
2023/12/29 02:47:23;;;;;;;89.97;65.95;;;;;;;;;;5012544;28;20346;-82
2023/12/29 02:49:50;;;;;;;22.10;15.23;;;;;;;;;;5012759;28;20108;-82
2023/12/29 02:52:15;;;;;;;13.65;8.15;;;;;;;;;;5012681;28;20018;-82
2023/12/29 02:54:40;;;;;;;12.40;8.90;;;;;;;;;;5029198;28;20025;-82
2023/12/29 02:57:06;;;;;;;13.23;8.45;;;;;;;;;;5030005;28;20391;-82
2023/12/29 02:59:31;;;;;;;26.13;18.67;;;;;;;;;;5012646;28;20353;-82
2023/12/29 03:01:56;;;;;;;24.80;16.20;;;;;;;;;;5012484;28;20113;-81
2023/12/29 03:04:21;;;;;;;27.42;15.25;;;;;;;;;;5012695;28;20418;-82
2023/12/29 03:06:47;;;;;;;18.80;14.48;;;;;;;;;;5030081;28;20021;-82
2023/12/29 03:09:12;;;;;;;9.90;6.57;;;;;;;;;;5029656;28;20040;-82
2023/12/29 03:11:37;;;;;;;15.63;8.32;;;;;;;;;;5012641;28;20421;-82
2023/12/29 03:14:03;;;;;;;27.95;14.20;;;;;;;;;;5030377;28;20336;-82
2023/12/29 03:16:28;;;;;;;16.77;11.30;;;;;;;;;;5030096;28;20025;-82
2023/12/29 03:18:54;;;;;;;32.67;14.00;;;;;;;;;;5029734;28;20017;-82
2023/12/29 03:21:19;;;;;;;12.13;8.50;;;;;;;;;;4996194;28;20028;-82
2023/12/29 03:23:44;;;;;;;17.70;10.20;;;;;;;;;;5029892;28;20021;-82
2023/12/29 03:26:10;;;;;;;13.43;8.93;;;;;;;;;;5029918;28;20112;-82
2023/12/29 03:28:35;;;;;;;32.60;15.43;;;;;;;;;;5028191;28;20033;-82
2023/12/29 03:31:00;;;;;;;34.97;16.25;;;;;;;;;;5029527;28;20021;-82
2023/12/29 03:33:25;;;;;;;19.75;9.70;;;;;;;;;;5012194;28;20036;-82
2023/12/29 03:35:51;;;;;;;28.77;15.20;;;;;;;;;;5029420;28;20517;-82
2023/12/29 03:38:16;;;;;;;14.00;8.43;;;;;;;;;;5011371;28;20368;-82
2023/12/29 03:40:41;;;;;;;20.85;11.80;;;;;;;;;;5029476;28;20471;-82
2023/12/29 03:43:07;;;;;;;22.25;13.18;;;;;;;;;;5011802;28;20060;-82
2023/12/29 03:45:32;;;;;;;15.35;9.45;;;;;;;;;;5029128;28;20060;-82
2023/12/29 03:47:58;;;;;;;20.58;10.40;;;;;;;;;;5027794;28;20414;-82
2023/12/29 03:50:23;;;;;;;24.33;12.68;;;;;;;;;;5029640;28;20029;-82
2023/12/29 03:52:48;;;;;;;14.50;8.10;;;;;;;;;;5010757;28;20072;-82
2023/12/29 03:55:15;;;;;;;13.50;7.45;;;;;;;;;;5029232;28;20029;-82
2023/12/29 03:57:42;;;;;;;11.45;6.78;;;;;;;;;;5011922;28;20439;-82
2023/12/29 04:00:07;;;;;;;10.90;6.45;;;;;;;;;;5029308;28;20013;-82
2023/12/29 04:02:32;;;;;;;9.68;5.95;;;;;;;;;;5028891;28;20040;-81
2023/12/29 04:04:59;;;;;;;13.88;7.00;;;;;;;;;;5029133;28;20388;-81
2023/12/29 04:07:24;;;;;;;100.43;37.20;;;;;;;;;;5027564;28;20103;-81
2023/12/29 04:09:49;;;;;;;49.03;22.35;;;;;;;;;;5029222;28;20487;-82
2023/12/29 04:12:15;;;;;;;67.68;31.95;;;;;;;;;;5029150;28;20477;-81
2023/12/29 04:14:40;;;;;;;77.60;33.65;;;;;;;;;;5011258;28;20030;-82
2023/12/29 04:17:13;;;;;;;21.88;14.35;;;;;;;;;;5029065;28;20024;-82
2023/12/29 04:19:38;;;;;;;330.92;117.18;;;;;;;;;;5029451;28;20024;-81
2023/12/29 04:22:04;;;;;;;22.45;12.50;;;;;;;;;;5028752;28;20017;-82
2023/12/29 04:24:30;;;;;;;247.23;79.22;;;;;;;;;;5029028;28;20025;-82
2023/12/29 04:26:55;;;;;;;14.02;7.75;;;;;;;;;;5031769;28;20029;-82
2023/12/29 04:29:21;;;;;;;42.95;24.80;;;;;;;;;;5029027;28;20028;-82
2023/12/29 04:31:46;;;;;;;45.45;18.08;;;;;;;;;;5010285;28;20152;-82
2023/12/29 04:34:12;;;;;;;47.75;22.30;;;;;;;;;;5029096;28;20064;-82
2023/12/29 04:36:38;;;;;;;42.20;19.60;;;;;;;;;;5028326;28;20142;-82
2023/12/29 04:39:03;;;;;;;130.85;42.00;;;;;;;;;;5027966;28;20014;-82
2023/12/29 04:41:28;;;;;;;369.75;105.65;;;;;;;;;;5010505;28;20021;-82
2023/12/29 04:43:54;;;;;;;383.02;110.53;;;;;;;;;;5010423;28;20037;-82
2023/12/29 04:46:19;;;;;;;544.67;187.43;;;;;;;;;;5010465;28;20237;-82
2023/12/29 04:48:44;;;;;;;295.90;98.63;;;;;;;;;;5028213;28;20080;-81
2023/12/29 04:51:09;;;;;;;473.42;155.52;;;;;;;;;;5028170;28;20021;-82
2023/12/29 04:53:35;;;;;;;958.50;359.48;;;;;;;;;;5028420;28;20026;-82
2023/12/29 04:56:00;;;;;;;351.55;122.55;;;;;;;;;;5010530;28;20494;-82
2023/12/29 04:58:25;;;;;;;147.75;49.42;;;;;;;;;;4998124;28;20175;-82
2023/12/29 05:00:51;;;;;;;544.05;142.10;;;;;;;;;;5010342;28;20018;-82
2023/12/29 05:03:16;;;;;;;568.08;145.07;;;;;;;;;;5028506;28;20116;-82
2023/12/29 05:05:41;;;;;;;186.70;60.78;;;;;;;;;;5028213;28;20382;-82
2023/12/29 05:08:06;;;;;;;322.25;113.97;;;;;;;;;;5024358;28;20021;-82
2023/12/29 05:10:34;;;;;;;28.42;16.38;;;;;;;;;;5028125;28;20024;-82
2023/12/29 05:12:59;;;;;;;65.30;28.45;;;;;;;;;;5027876;28;20395;-82
2023/12/29 05:15:25;;;;;;;43.45;19.50;;;;;;;;;;5026091;28;20025;-82
2023/12/29 05:17:50;;;;;;;35.17;16.63;;;;;;;;;;5009671;28;20014;-82
2023/12/29 05:20:15;;;;;;;274.45;102.45;;;;;;;;;;5027819;28;20390;-82
2023/12/29 05:22:41;;;;;;;19.20;11.90;;;;;;;;;;5009498;28;20045;-82
2023/12/29 05:25:06;;;;;;;31.90;17.55;;;;;;;;;;5027803;28;20024;-82
2023/12/29 05:27:32;;;;;;;50.13;24.60;;;;;;;;;;5027652;28;20020;-84
2023/12/29 05:29:57;;;;;;;22.85;13.23;;;;;;;;;;5027567;28;20021;-82
2023/12/29 05:32:22;;;;;;;22.83;12.88;;;;;;;;;;5027805;28;20569;-82
2023/12/29 05:34:47;;;;;;;26.88;14.95;;;;;;;;;;5027453;28;20070;-84
2023/12/29 05:37:13;;;;;;;18.45;10.57;;;;;;;;;;5027459;28;20054;-84
2023/12/29 05:39:41;;;;;;;29.13;14.50;;;;;;;;;;5027354;28;20056;-84
2023/12/29 05:42:06;;;;;;;37.13;20.02;;;;;;;;;;5027494;28;20048;-84
2023/12/29 05:44:31;;;;;;;18.05;10.80;;;;;;;;;;5009311;28;20057;-84
2023/12/29 05:46:58;;;;;;;62.25;28.90;;;;;;;;;;5009151;28;20386;-84
2023/12/29 05:49:26;;;;;;;43.47;24.35;;;;;;;;;;5026840;28;20463;-84
2023/12/29 05:51:52;;;;;;;40.13;24.93;;;;;;;;;;5023823;28;20344;-84
2023/12/29 05:54:17;;;;;;;67.68;34.22;;;;;;;;;;5025989;28;20332;-83
2023/12/29 05:56:43;;;;;;;67.85;33.25;;;;;;;;;;5026920;28;20100;-84
2023/12/29 05:59:08;;;;;;;63.10;29.35;;;;;;;;;;5009493;28;20052;-84
2023/12/29 06:01:33;;;;;;;37.10;18.15;;;;;;;;;;5027103;28;20010;-84
2023/12/29 06:03:59;;;;;;;126.05;49.50;;;;;;;;;;5027460;28;20053;-84
2023/12/29 06:06:24;;;;;;;27.20;14.38;;;;;;;;;;5009302;28;20203;-84
2023/12/29 06:08:50;;;;;;;43.78;26.08;;;;;;;;;;5009149;28;20069;-84
2023/12/29 06:11:16;;;;;;;23.27;14.45;;;;;;;;;;5026919;28;20490;-84
2023/12/29 06:13:41;;;;;;;215.85;99.65;;;;;;;;;;5009664;28;20027;-84
2023/12/29 06:16:06;;;;;;;111.22;47.75;;;;;;;;;;5012723;28;20467;-84
2023/12/29 06:18:32;;;;;;;23.85;13.75;;;;;;;;;;5030454;28;20432;-84
2023/12/29 06:20:57;;;;;;;28.85;17.55;;;;;;;;;;5028099;28;20573;-84
2023/12/29 06:23:22;;;;;;;31.05;19.15;;;;;;;;;;5013223;28;20122;-84
2023/12/29 06:25:48;;;;;;;37.15;20.80;;;;;;;;;;5030722;28;20033;-84
2023/12/29 06:28:14;;;;;;;86.68;47.10;;;;;;;;;;5012126;28;20036;-84
2023/12/29 06:30:39;;;;;;;250.00;125.63;;;;;;;;;;5012564;28;20079;-84
2023/12/29 06:33:04;;;;;;;54.13;26.27;;;;;;;;;;5020569;28;20435;-84
2023/12/29 06:35:30;;;;;;;447.52;128.27;;;;;;;;;;5010963;28;20018;-84
2023/12/29 06:37:55;;;;;;;147.88;71.47;;;;;;;;;;5028934;28;20050;-84
2023/12/29 06:40:20;;;;;;;98.88;44.08;;;;;;;;;;5013212;28;20136;-82
2023/12/29 06:42:46;;;;;;;46.28;27.67;;;;;;;;;;5030840;28;20383;-83
2023/12/29 06:45:11;;;;;;;48.88;28.90;;;;;;;;;;5031127;28;20056;-83
2023/12/29 06:47:38;;;;;;;32.13;19.25;;;;;;;;;;5031962;28;20425;-83
2023/12/29 06:50:04;;;;;;;45.58;27.58;;;;;;;;;;5013163;28;20513;-83
2023/12/29 06:52:34;;;;;;;98.60;57.45;;;;;;;;;;5022365;28;20486;-83
2023/12/29 06:55:01;;;;;;;135.73;42.50;;;;;;;;;;5013638;28;20044;-83
2023/12/29 06:57:27;;;;;;;26.05;13.55;;;;;;;;;;5031432;28;20026;-83
2023/12/29 06:59:52;;;;;;;58.15;24.30;;;;;;;;;;5012859;28;20071;-83
2023/12/29 07:02:17;;;;;;;116.22;54.38;;;;;;;;;;5017009;28;20036;-83
2023/12/29 07:04:43;;;;;;;82.32;48.42;;;;;;;;;;5031057;28;20038;-83
2023/12/29 07:07:08;;;;;;;71.03;41.13;;;;;;;;;;5030259;28;20033;-83
2023/12/29 07:09:33;;;;;;;196.48;88.57;;;;;;;;;;5012013;28;20368;-83
2023/12/29 07:11:59;;;;;;;154.75;74.45;;;;;;;;;;5012403;28;20399;-82
2023/12/29 07:14:24;;;;;;;163.50;81.35;;;;;;;;;;5020440;28;20021;-85
2023/12/29 07:16:49;;;;;;;92.43;51.88;;;;;;;;;;5022989;28;20024;-84
2023/12/29 07:19:15;;;;;;;89.47;51.08;;;;;;;;;;5021713;28;20021;-84
2023/12/29 07:21:40;;;;;;;49.72;31.35;;;;;;;;;;5021624;28;20025;-84
2023/12/29 07:24:05;;;;;;;80.15;46.17;;;;;;;;;;5043568;28;20048;-84
2023/12/29 07:26:32;;;;;;;44.75;27.90;;;;;;;;;;5021413;28;20040;-85
2023/12/29 07:28:57;;;;;;;47.10;29.08;;;;;;;;;;5027115;28;20029;-84
2023/12/29 07:31:23;;;;;;;39.97;26.50;;;;;;;;;;5038089;28;20040;-84
2023/12/29 07:33:49;;;;;;;36.38;21.55;;;;;;;;;;5035840;28;20396;-85
2023/12/29 07:36:14;;;;;;;45.17;26.70;;;;;;;;;;5037517;28;20044;-84
2023/12/29 07:38:39;;;;;;;101.05;46.70;;;;;;;;;;5018764;28;20457;-84
2023/12/29 07:41:05;;;;;;;44.78;24.67;;;;;;;;;;5032343;28;20362;-84
2023/12/29 07:43:31;;;;;;;148.98;60.40;;;;;;;;;;5012784;28;20032;-84
2023/12/29 07:45:56;;;;;;;54.85;29.33;;;;;;;;;;5013879;28;20052;-84
2023/12/29 07:48:21;;;;;;;115.38;50.50;;;;;;;;;;5032442;28;20032;-84
2023/12/29 07:50:47;;;;;;;41.40;24.88;;;;;;;;;;5030025;28;20029;-84
2023/12/29 07:53:12;;;;;;;87.50;46.42;;;;;;;;;;5033553;28;20021;-85
2023/12/29 07:55:39;;;;;;;67.93;41.72;;;;;;;;;;5028308;28;20078;-84
2023/12/29 07:58:04;;;;;;;60.50;32.72;;;;;;;;;;5030880;28;20108;-84
2023/12/29 08:00:29;;;;;;;52.67;26.08;;;;;;;;;;5031217;28;20119;-84
2023/12/29 08:02:54;;;;;;;61.10;26.95;;;;;;;;;;5012669;28;20555;-84
2023/12/29 08:05:20;;;;;;;61.47;29.70;;;;;;;;;;5019221;28;20021;-84
2023/12/29 08:07:45;;;;;;;85.22;41.72;;;;;;;;;;5013116;28;20442;-84
2023/12/29 08:10:11;;;;;;;82.28;39.17;;;;;;;;;;5016254;28;20021;-84
2023/12/29 08:12:36;;;;;;;101.80;46.40;;;;;;;;;;5014520;28;20395;-84
2023/12/29 08:15:02;;;;;;;35.35;18.85;;;;;;;;;;5011575;28;20060;-84
2023/12/29 08:17:29;;;;;;;39.75;20.65;;;;;;;;;;5030680;28;20021;-83
2023/12/29 08:19:54;;;;;;;29.67;17.90;;;;;;;;;;5012691;28;20591;-84
2023/12/29 08:22:20;;;;;;;25.67;16.33;;;;;;;;;;5012981;28;20392;-84
2023/12/29 08:24:45;;;;;;;40.15;22.17;;;;;;;;;;5014284;28;20080;-84
2023/12/29 08:27:13;;;;;;;30.80;16.95;;;;;;;;;;5033111;28;20013;-84
2023/12/29 08:29:39;;;;;;;21.08;12.43;;;;;;;;;;5012292;28;20029;-84
2023/12/29 08:32:04;;;;;;;24.20;10.73;;;;;;;;;;5024921;28;20043;-84
2023/12/29 08:34:30;;;;;;;17.38;11.23;;;;;;;;;;5011945;28;20028;-84
2023/12/29 08:36:56;;;;;;;20.17;12.65;;;;;;;;;;5020236;28;20483;-84
2023/12/29 08:39:21;;;;;;;14.40;9.52;;;;;;;;;;5033317;28;20045;-84
2023/12/29 08:41:47;;;;;;;16.55;10.85;;;;;;;;;;5023937;28;20032;-84
2023/12/29 08:44:12;;;;;;;15.10;11.15;;;;;;;;;;5033929;28;20026;-84
2023/12/29 08:46:37;;;;;;;17.30;12.38;;;;;;;;;;5034706;28;20025;-84
2023/12/29 08:49:03;;;;;;;18.90;14.25;;;;;;;;;;5031519;28;20029;-83
2023/12/29 08:51:28;;;;;;;21.23;15.35;;;;;;;;;;5018286;28;20029;-84
2023/12/29 08:53:54;;;;;;;18.70;13.05;;;;;;;;;;5046004;28;20291;-85
2023/12/29 08:56:19;;;;;;;18.70;11.90;;;;;;;;;;5028530;28;20581;-85
2023/12/29 08:58:44;;;;;;;12.30;8.68;;;;;;;;;;5046392;28;20101;-84
2023/12/29 09:01:09;;;;;;;18.40;13.07;;;;;;;;;;5019742;28;20020;-84
2023/12/29 09:03:35;;;;;;;26.70;16.77;;;;;;;;;;5035408;28;20026;-84
2023/12/29 09:06:01;;;;;;;48.58;29.65;;;;;;;;;;5017496;28;20025;-83
2023/12/29 09:08:27;;;;;;;28.55;19.30;;;;;;;;;;5036141;28;20056;-84
2023/12/29 09:10:52;;;;;;;24.67;16.67;;;;;;;;;;5041069;28;20030;-83
2023/12/29 09:13:18;;;;;;;27.23;19.42;;;;;;;;;;5028680;28;20025;-83
2023/12/29 09:15:43;;;;;;;36.60;22.70;;;;;;;;;;5035830;28;20072;-84
2023/12/29 09:18:10;;;;;;;40.05;26.08;;;;;;;;;;5020590;28;20647;-82
2023/12/29 09:20:35;;;;;;;26.42;18.77;;;;;;;;;;5031552;28;20033;-83
2023/12/29 09:23:00;;;;;;;28.88;18.83;;;;;;;;;;5031239;28;20025;-83
2023/12/29 09:25:26;;;;;;;22.48;17.75;;;;;;;;;;5030808;28;20103;-84
2023/12/29 09:27:52;;;;;;;37.03;24.17;;;;;;;;;;5030317;28;20041;-83
2023/12/29 09:30:17;;;;;;;61.25;28.73;;;;;;;;;;5015843;28;20053;-83
2023/12/29 09:32:42;;;;;;;102.85;39.63;;;;;;;;;;5016098;28;20037;-83
2023/12/29 09:35:08;;;;;;;157.32;50.50;;;;;;;;;;5035387;28;20029;-83
2023/12/29 09:37:33;;;;;;;155.13;50.28;;;;;;;;;;5025801;28;20048;-84
2023/12/29 09:39:58;;;;;;;182.13;62.00;;;;;;;;;;5029831;28;20364;-86
2023/12/29 09:42:24;;;;;;;179.32;52.50;;;;;;;;;;5013806;28;20053;-85
2023/12/29 09:44:51;;;;;;;145.90;48.47;;;;;;;;;;5029186;28;20035;-86
2023/12/29 09:47:19;;;;;;;113.72;39.58;;;;;;;;;;5041455;28;20022;-86
2023/12/29 09:49:44;;;;;;;118.50;41.38;;;;;;;;;;5038316;28;20036;-86
2023/12/29 09:52:12;;;;;;;162.35;57.40;;;;;;;;;;5049407;28;20029;-86
2023/12/29 09:54:37;;;;;;;42.83;22.05;;;;;;;;;;5031811;28;20024;-86
2023/12/29 09:57:05;;;;;;;233.07;69.03;;;;;;;;;;5028367;28;20021;-86
2023/12/29 09:59:31;;;;;;;150.85;51.45;;;;;;;;;;5027405;28;20053;-85
2023/12/29 10:01:58;;;;;;;282.60;82.35;;;;;;;;;;5038403;28;20033;-84
2023/12/29 10:04:23;;;;;;;162.50;51.35;;;;;;;;;;5040470;28;20025;-83
2023/12/29 10:06:50;;;;;;;155.00;49.85;;;;;;;;;;5038166;28;20028;-84
2023/12/29 10:09:16;;;;;;;193.77;56.92;;;;;;;;;;5032218;28;20025;-86
2023/12/29 10:11:42;;;;;;;146.10;51.83;;;;;;;;;;5031065;28;20064;-86
2023/12/29 10:14:26;;;;;;;161.52;51.58;;;;;;;;;;5012625;28;20107;-86
2023/12/29 10:17:08;;;;;;;69.30;29.50;;;;;;;;;;4995449;28;20087;-86
2023/12/29 10:19:50;;;;;;;147.88;48.85;;;;;;;;;;5009540;28;20113;-85
2023/12/29 10:22:21;;;;;;;132.02;40.47;;;;;;;;;;5006260;28;20029;-85
2023/12/29 10:24:46;;;;;;;21.85;13.18;;;;;;;;;;5034877;28;20022;-86
2023/12/29 10:27:12;;;;;;;31.45;19.23;;;;;;;;;;5043375;28;20060;-86
2023/12/29 10:29:37;;;;;;;30.20;19.85;;;;;;;;;;5033676;28;20029;-85
2023/12/29 10:32:03;;;;;;;117.68;42.08;;;;;;;;;;5006854;28;20049;-87
2023/12/29 10:34:28;;;;;;;33.90;21.00;;;;;;;;;;5006451;28;20395;-87
2023/12/29 10:36:55;;;;;;;59.63;25.13;;;;;;;;;;5008526;28;20410;-87
2023/12/29 10:39:20;;;;;;;25.73;14.80;;;;;;;;;;5010168;28;20361;-88
2023/12/29 10:41:45;;;;;;;20.92;12.82;;;;;;;;;;5008410;28;20028;-86
2023/12/29 10:44:11;;;;;;;59.63;27.92;;;;;;;;;;5012801;28;20075;-84
2023/12/29 10:46:36;;;;;;;48.85;23.48;;;;;;;;;;5013690;28;20239;-88
2023/12/29 10:49:11;;;;;;;28.30;15.57;;;;;;;;;;5010430;28;20025;-88
2023/12/29 10:51:37;;;;;;;16.88;12.93;;;;;;;;;;4993991;28;20072;-89
2023/12/29 10:54:03;;;;;;;114.05;38.95;;;;;;;;;;5027510;28;20482;-90
2023/12/29 10:56:29;;;;;;;29.95;18.05;;;;;;;;;;5009307;28;20498;-90
2023/12/29 10:59:05;;;;;;;29.13;17.35;;;;;;;;;;5027573;28;20029;-89
2023/12/29 11:01:34;;;;;;;18.10;10.77;;;;;;;;;;5009649;28;20024;-90
2023/12/29 11:04:00;;;;;;;22.52;16.02;;;;;;;;;;5019999;28;20029;-89
2023/12/29 11:06:26;;;;;;;32.03;20.42;;;;;;;;;;5030383;28;20021;-89
2023/12/29 11:08:52;;;;;;;22.50;14.90;;;;;;;;;;5030517;28;20036;-90
2023/12/29 11:11:17;;;;;;;73.55;31.88;;;;;;;;;;5006962;28;20332;-90
2023/12/29 11:13:43;;;;;;;32.15;18.30;;;;;;;;;;5019921;28;20041;-90
2023/12/29 11:16:09;;;;;;;66.88;31.80;;;;;;;;;;4994453;28;20172;-91
2023/12/29 11:18:35;;;;;;;24.42;15.38;;;;;;;;;;5010250;28;20025;-90
2023/12/29 11:21:00;;;;;;;243.07;88.85;;;;;;;;;;5010501;28;20013;-89
2023/12/29 11:23:26;;;;;;;100.22;73.03;;;;;;;;;;5028243;28;20037;-90
2023/12/29 11:25:53;;;;;;;177.85;71.57;;;;;;;;;;5008758;28;20079;-90
2023/12/29 11:28:19;;;;;;;26.77;16.63;;;;;;;;;;5028237;28;20040;-89
2023/12/29 11:30:45;;;;;;;41.90;19.40;;;;;;;;;;4993758;28;20626;-89
2023/12/29 11:33:15;;;;;;;328.58;123.13;;;;;;;;;;5010849;28;20061;-90
2023/12/29 11:35:49;;;;;;;30.98;19.50;;;;;;;;;;5009796;28;20125;-89
2023/12/29 11:38:29;;;;;;;26.38;16.58;;;;;;;;;;5009851;28;20072;-89
2023/12/29 11:40:54;;;;;;;78.30;32.17;;;;;;;;;;5013266;28;20217;-89
2023/12/29 11:43:20;;;;;;;49.17;24.90;;;;;;;;;;5009795;28;20112;-89
2023/12/29 11:45:45;;;;;;;82.28;35.78;;;;;;;;;;5009380;28;20037;-89
2023/12/29 11:48:11;;;;;;;22.92;15.43;;;;;;;;;;5009660;28;20037;-89
2023/12/29 11:50:38;;;;;;;18.45;11.70;;;;;;;;;;5020518;28;20025;-89
2023/12/29 11:53:04;;;;;;;18.77;13.25;;;;;;;;;;5027555;28;20106;-89
2023/12/29 11:55:32;;;;;;;20.98;12.95;;;;;;;;;;5021644;28;20053;-88
2023/12/29 11:57:58;;;;;;;;;;;;;;;;;;5027913;28;20017;-89
2023/12/29 12:00:43;;;;;;;25.38;16.30;;;;;;;;;;5026096;28;20687;-89
2023/12/29 12:03:28;;;;;;;52.63;30.42;;;;;;;;;;5010369;28;20436;-88
2023/12/29 12:05:56;;;;;;;168.43;74.20;;;;;;;;;;5027055;28;20103;-90
2023/12/29 12:08:31;;;;;;;41.20;23.67;;;;;;;;;;5009051;28;20538;-88
2023/12/29 12:10:57;;;;;;;81.50;44.35;;;;;;;;;;5008677;28;20033;-89
2023/12/29 12:13:41;;;;;;;44.58;27.40;;;;;;;;;;5027186;28;20022;-89
2023/12/29 12:16:06;;;;;;;18.35;13.68;;;;;;;;;;5009008;28;20414;-88
2023/12/29 12:18:32;;;;;;;21.15;15.02;;;;;;;;;;5009149;28;20163;-89
2023/12/29 12:20:59;;;;;;;23.90;13.40;;;;;;;;;;5014984;28;20117;-88
2023/12/29 12:23:25;;;;;;;25.25;15.45;;;;;;;;;;5025122;28;20373;-88
2023/12/29 12:25:57;;;;;;;34.97;18.75;;;;;;;;;;5024704;28;20400;-88
2023/12/29 12:28:22;;;;;;;34.08;25.63;;;;;;;;;;5013666;28;20022;-88
2023/12/29 12:30:47;;;;;;;43.13;32.75;;;;;;;;;;5037333;28;20034;-88
2023/12/29 12:33:13;;;;;;;27.23;20.48;;;;;;;;;;5018425;28;20021;-89
2023/12/29 12:35:39;;;;;;;18.88;11.68;;;;;;;;;;5017804;28;20021;-88
2023/12/29 12:38:09;;;;;;;14.27;10.63;;;;;;;;;;5034201;28;20052;-89
2023/12/29 12:40:38;;;;;;;23.25;18.42;;;;;;;;;;5032421;28;20060;-89
2023/12/29 12:43:04;;;;;;;25.02;18.48;;;;;;;;;;5019323;28;20079;-89
2023/12/29 12:45:33;;;;;;;16.33;11.88;;;;;;;;;;5016774;28;20033;-89
2023/12/29 12:48:01;;;;;;;;;;;;;;;;;;5027408;28;20025;-88
2023/12/29 12:50:26;;;;;;;18.80;12.90;;;;;;;;;;5026132;28;19909;-88
2023/12/29 12:52:52;;;;;;;17.85;13.30;;;;;;;;;;5008667;28;20080;-88
2023/12/29 12:55:19;;;;;;;22.85;14.80;;;;;;;;;;5009540;28;20029;-88
2023/12/29 12:57:45;;;;;;;17.10;11.75;;;;;;;;;;5030279;28;20029;-88
2023/12/29 13:00:10;;;;;;;15.55;11.13;;;;;;;;;;5013820;28;20021;-89
2023/12/29 13:02:37;;;;;;;22.42;16.00;;;;;;;;;;5027624;28;20020;-89
2023/12/29 13:05:07;;;;;;;18.65;11.43;;;;;;;;;;5025595;28;20069;-89
2023/12/29 13:07:33;;;;;;;21.10;12.75;;;;;;;;;;5026041;28;20071;-89
2023/12/29 13:09:58;;;;;;;17.73;11.68;;;;;;;;;;5008018;28;20049;-89
2023/12/29 13:12:24;;;;;;;23.58;15.18;;;;;;;;;;5016541;28;20029;-88
2023/12/29 13:14:49;;;;;;;20.27;11.95;;;;;;;;;;5026798;28;20021;-88
2023/12/29 13:17:17;;;;;;;19.08;12.38;;;;;;;;;;5011165;28;20500;-88
2023/12/29 13:19:43;;;;;;;23.23;15.30;;;;;;;;;;5016440;28;20021;-87
2023/12/29 13:22:09;;;;;;;18.98;13.98;;;;;;;;;;5017142;28;20430;-88
2023/12/29 13:24:42;;;;;;;20.23;14.50;;;;;;;;;;5034896;28;20275;-87
2023/12/29 13:27:07;;;;;;;20.27;13.63;;;;;;;;;;5034183;28;20479;-88
2023/12/29 13:29:36;;;;;;;22.52;15.65;;;;;;;;;;5014263;28;20052;-87
2023/12/29 13:32:14;;;;;;;25.23;15.98;;;;;;;;;;5012591;28;20129;-87
2023/12/29 13:34:39;;;;;;;22.30;14.85;;;;;;;;;;5029996;28;20372;-87
2023/12/29 13:37:07;;;;;;;28.90;19.42;;;;;;;;;;5029548;28;20408;-88
2023/12/29 13:39:44;;;;;;;23.40;19.00;;;;;;;;;;5012890;28;20035;-87
2023/12/29 13:42:12;;;;;;;28.58;20.40;;;;;;;;;;5011273;28;20033;-86
2023/12/29 13:44:40;;;;;;;35.60;23.00;;;;;;;;;;5011823;28;20030;-87
2023/12/29 13:47:05;;;;;;;43.13;32.50;;;;;;;;;;5010639;28;20021;-87
2023/12/29 13:49:36;;;;;;;43.65;33.13;;;;;;;;;;5010980;28;20387;-87
2023/12/29 13:52:02;;;;;;;37.53;25.58;;;;;;;;;;5011499;28;20025;-87
2023/12/29 13:54:28;;;;;;;43.97;29.90;;;;;;;;;;5011253;28;20487;-86
2023/12/29 13:56:53;;;;;;;49.40;30.38;;;;;;;;;;5008477;28;20025;-87
2023/12/29 13:59:28;;;;;;;64.25;33.67;;;;;;;;;;5015094;28;20045;-91
2023/12/29 14:01:53;;;;;;;59.95;35.92;;;;;;;;;;5006668;28;20040;-90
2023/12/29 14:04:20;;;;;;;64.47;40.75;;;;;;;;;;5004676;28;20025;-89
2023/12/29 14:06:53;;;;;;;46.45;30.70;;;;;;;;;;5025317;28;20634;-90
2023/12/29 14:09:19;;;;;;;36.15;24.48;;;;;;;;;;5039021;28;20116;-87
2023/12/29 14:11:51;;;;;;;29.23;19.58;;;;;;;;;;5037750;28;20049;-90